Huvudsida
METAR-TAF:

METAR-TAF

Flygplatser :

Arlanda

Stockholm-Arlanda, Sverige

latitud: 59-39N, longitud: 017-57E, höjd: 38 m

Aktuellt väderrapport

Denna rapport gjordes för 22 minuter sedan, klockan 06:20 UTC
Vind 8 kt från nordväst
Temperatur -4°C
Fuktighet 80%
Tryck 1017 hPa
Sikt 10 km eller mer
Inga moln under 1 500 m eller inga cumulonimbus

METAR: ESSA 050620Z 31008KT CAVOK M04/M07 Q1017 R01L/19//69 R26/19//63 R19L/19//65 NOSIG

Tid: 07:42 (06:42 UTC)

Väderprognos

Denna rapport gjordes för 1 timme och 12 minuter sedan, klockan 05:30 UTC
Prognos gäller från 05 kl. 06 UTC till 06 kl. 06 UTC
Vind 12 kt från nordväst
Sikt 10 km eller mer
Inga moln under 1 500 m eller inga cumulonimbus
Sannolikhet 40%
från 05 kl. 10 UTC till 05 kl. 15 UTC
Spridda moln på en höjd av 4500 ft, Högtornande cumulus.
Blir
från 05 kl. 17 UTC till 05 kl. 19 UTC
Vind 5 kt från sydväst

TAF: ESSA 050530Z 0506/0606 32012KT CAVOK PROB40 0510/0515 SCT045TCU BECMG 0517/0519 23005KT

Aktuella väderrapporter och prognoser från 4000 flygplatser (METAR- och TAF-rapporter).

De tillgängliga stationerna syns som gula och röda prickar på kartan.

För musen över prickarna för att se namnen på stationerna.

Klicka sedan för att få väderrapporter och prognoser.

För att ändra kartan: Klicka på de gröna knapparna med ett svart kors på för att zooma in; den gröna knappen med ett streck på för att zooma ut; eller på de gröna pilarna för angränsande kartor.


METAR-TAF: